Flugplatz Fulda-Jossa (EDGF)

Hier findest Du alle Informationen zum Flugplatz Fulda-Jossa (EDGF).

Informationen für Piloten zum Flugplatz Fulda-Jossa

Hier findest Du alle relevanten Informationen, die Du als Pilot benötigst, um Fulda-Jossa anzufliegen.

Flugplatz: Fulda-Jossa ICAO-Code: EDGF
Frequenz Turm: 122,400 Mhz GAFOR Gebiet: 43
Frequenz Ground: 122,400 Mhz Mogas: nein
Platzrunde: S 2500 ft Landegebühr: -
Platzhöhe: - Sunrise: 03:08 Uhr UTC
Pisten: 08/26 - 588 m x 30 m, GRAS Sunset: 19:40 Uhr UTC

Mitglieder, die in Fulda-Jossa fliegen

Flugwetter am Flugplatz Fulda-Jossa

Die METAR Information stammen aus EDDF (79.08 km entfernt).

METAR Code:
2021/06/21 22:20
EDDF 212220Z 02011KT CAVOK 18/12 Q1012 NOSIG

Flugschulen am Flugplatz Fulda-Jossa

Am Flugplatz Fulda-Jossa gibt es leider keine Flugschule.

Benachbarte Flugplätze und Flugschulen

Es gibt 11 weitere Flugplätze in einem Umkreis von 50 km um den Flugplatz Fulda-Jossa.

Jetzt anmelden

Passwort vergessen

Umfrage Archiv

Seid Ihr aufgrund von Corona im Jahr 2020 mehr oder weniger geflogen als im Jahr zuvor?

weniger
56.5 %
gleich viel
26.3 %
mehr
17.3 %
Stimmen: 255 | Diskussion
Anzeige: Roland Aircraft
Statistik Alle Mitglieder

Aktuell sind 79 Besucher online, davon 2 Mitglieder und 77 Gäste.


Mitglieder online:
PeterM  HansOtto 

Anzeige: VFR Sprechfunk Simulator Anzeige: Pocket FMS